sensor_id;sensor_type;location;lat;lon;timestamp;pressure;altitude;pressure_sealevel;temperature;humidity
21877;BME280;11103;43.788;23.710;2023-05-03T00:00:12;-4588.00;;;-144.67;100.00
21877;BME280;11103;43.788;23.710;2023-05-03T00:02:40;-5327.19;;;-144.67;100.00
21877;BME280;11103;43.788;23.710;2023-05-03T00:05:09;-5573.53;;;-144.67;100.00
21877;BME280;11103;43.788;23.710;2023-05-03T00:07:41;-5327.19;;;-144.67;100.00
21877;BME280;11103;43.788;23.710;2023-05-03T00:10:08;-6066.19;;;-144.67;100.00
21877;BME280;11103;43.788;23.710;2023-05-03T00:12:37;-7543.66;;;-144.67;100.00
21877;BME280;11103;43.788;23.710;2023-05-03T00:15:03;-8774.41;;;-144.67;100.00
21877;BME280;11103;43.788;23.710;2023-05-03T00:17:28;-8282.16;;;-144.67;100.00
21877;BME280;11103;43.788;23.710;2023-05-03T00:19:54;-6558.75;;;-144.67;100.00
21877;BME280;11103;43.788;23.710;2023-05-03T00:22:20;-4834.41;;;-144.67;100.00
21877;BME280;11103;43.788;23.710;2023-05-03T00:24:46;-2369.50;;;-144.67;100.00
21877;BME280;11103;43.788;23.710;2023-05-03T00:27:13;-2369.50;;;-144.67;100.00
21877;BME280;11103;43.788;23.710;2023-05-03T00:29:39;-1876.31;;;-144.67;100.00
21877;BME280;11103;43.788;23.710;2023-05-03T00:32:04;-3109.16;;;-144.67;100.00
21877;BME280;11103;43.788;23.710;2023-05-03T00:34:30;-2122.91;;;-144.67;100.00
21877;BME280;11103;43.788;23.710;2023-05-03T00:36:55;-3848.69;;;-144.67;100.00
21877;BME280;11103;43.788;23.710;2023-05-03T00:39:21;-2862.63;;;-144.67;100.00
21877;BME280;11103;43.788;23.710;2023-05-03T00:41:46;-642.97;;;-144.67;100.00
21877;BME280;11103;43.788;23.710;2023-05-03T00:44:11;-642.97;;;-144.67;100.00
21877;BME280;11103;43.788;23.710;2023-05-03T00:46:37;-1876.31;;;-144.67;100.00
21877;BME280;11103;43.788;23.710;2023-05-03T00:49:02;-2369.50;;;-144.67;100.00
21877;BME280;11103;43.788;23.710;2023-05-03T00:51:28;-642.97;;;-144.67;100.00
21877;BME280;11103;43.788;23.710;2023-05-03T00:53:53;1331.34;;;-144.67;100.00
21877;BME280;11103;43.788;23.710;2023-05-03T00:56:19;1578.22;;;-144.67;100.00
21877;BME280;11103;43.788;23.710;2023-05-03T00:58:49;-2122.91;;;-144.67;100.00
21877;BME280;11103;43.788;23.710;2023-05-03T01:01:15;-3602.19;;;-144.67;100.00
21877;BME280;11103;43.788;23.710;2023-05-03T01:03:41;-5819.84;;;-144.67;100.00
21877;BME280;11103;43.788;23.710;2023-05-03T01:08:46;-4095.13;;;-144.67;100.00
21877;BME280;11103;43.788;23.710;2023-05-03T01:11:20;-4588.00;;;-144.67;100.00
21877;BME280;11103;43.788;23.710;2023-05-03T01:17:08;-2369.50;;;-144.67;100.00
21877;BME280;11103;43.788;23.710;2023-05-03T01:19:40;-1136.34;;;-144.67;100.00
21877;BME280;11103;43.788;23.710;2023-05-03T01:22:34;-2862.63;;;-144.67;100.00
21877;BME280;11103;43.788;23.710;2023-05-03T01:25:08;-3848.69;;;-144.67;100.00
21877;BME280;11103;43.788;23.710;2023-05-03T01:27:38;-1383.03;;;-144.67;100.00
21877;BME280;11103;43.788;23.710;2023-05-03T01:30:04;97.25;;;-144.67;100.00
21877;BME280;11103;43.788;23.710;2023-05-03T01:32:51;-2862.63;;;-144.67;100.00
21877;BME280;11103;43.788;23.710;2023-05-03T01:35:39;-3602.19;;;-144.67;100.00
21877;BME280;11103;43.788;23.710;2023-05-03T01:38:09;-5327.19;;;-144.67;100.00
21877;BME280;11103;43.788;23.710;2023-05-03T01:40:44;-3109.16;;;-144.67;100.00
21877;BME280;11103;43.788;23.710;2023-05-03T01:43:12;-3355.69;;;-144.67;100.00
21877;BME280;11103;43.788;23.710;2023-05-03T01:45:41;-4095.13;;;-144.67;100.00
21877;BME280;11103;43.788;23.710;2023-05-03T01:48:10;-3848.69;;;-144.67;100.00
21877;BME280;11103;43.788;23.710;2023-05-03T01:50:36;-4834.41;;;-144.67;100.00
21877;BME280;11103;43.788;23.710;2023-05-03T01:53:01;-5080.81;;;-144.67;100.00
21877;BME280;11103;43.788;23.710;2023-05-03T01:55:27;-5573.53;;;-144.67;100.00
21877;BME280;11103;43.788;23.710;2023-05-03T01:57:52;-4834.41;;;-144.67;100.00
21877;BME280;11103;43.788;23.710;2023-05-03T02:00:17;-3848.69;;;-144.67;100.00
21877;BME280;11103;43.788;23.710;2023-05-03T02:02:43;-4095.13;;;-144.67;100.00
21877;BME280;11103;43.788;23.710;2023-05-03T02:05:09;-5819.84;;;-144.67;100.00
21877;BME280;11103;43.788;23.710;2023-05-03T02:07:35;-7789.84;;;-144.67;100.00
21877;BME280;11103;43.788;23.710;2023-05-03T02:10:00;-8282.16;;;-144.67;100.00
21877;BME280;11103;43.788;23.710;2023-05-03T02:12:26;-6066.19;;;-144.67;100.00
21877;BME280;11103;43.788;23.710;2023-05-03T02:14:51;-6312.47;;;-144.67;100.00
21877;BME280;11103;43.788;23.710;2023-05-03T02:17:17;-6805.00;;;-144.67;100.00
21877;BME280;11103;43.788;23.710;2023-05-03T02:19:43;-8282.16;;;-144.67;100.00
21877;BME280;11103;43.788;23.710;2023-05-03T02:22:08;-8774.41;;;-144.67;100.00
21877;BME280;11103;43.788;23.710;2023-05-03T02:24:34;-6312.47;;;-144.67;100.00
21877;BME280;11103;43.788;23.710;2023-05-03T02:27:01;-5327.19;;;-144.67;100.00
21877;BME280;11103;43.788;23.710;2023-05-03T02:29:29;-2862.63;;;-144.67;100.00
21877;BME280;11103;43.788;23.710;2023-05-03T02:31:55;-5080.81;;;-144.67;100.00
21877;BME280;11103;43.788;23.710;2023-05-03T02:34:20;-1136.34;;;-144.67;100.00
21877;BME280;11103;43.788;23.710;2023-05-03T02:36:46;-1876.31;;;-144.67;100.00
21877;BME280;11103;43.788;23.710;2023-05-03T02:39:11;97.25;;;-144.67;100.00
21877;BME280;11103;43.788;23.710;2023-05-03T02:41:37;837.66;;;-144.67;100.00
21877;BME280;11103;43.788;23.710;2023-05-03T02:44:02;-889.66;;;-144.67;100.00
21877;BME280;11103;43.788;23.710;2023-05-03T02:46:28;837.66;;;-144.67;100.00
21877;BME280;11103;43.788;23.710;2023-05-03T02:48:53;-889.66;;;-144.67;100.00
21877;BME280;11103;43.788;23.710;2023-05-03T02:51:18;-3848.69;;;-144.67;100.00
21877;BME280;11103;43.788;23.710;2023-05-03T02:53:44;-7789.84;;;-144.67;100.00
21877;BME280;11103;43.788;23.710;2023-05-03T02:56:10;-10496.66;;;-144.67;100.00
21877;BME280;11103;43.788;23.710;2023-05-03T02:58:35;-10988.56;;;-144.67;100.00
21877;BME280;11103;43.788;23.710;2023-05-03T03:01:01;-5080.81;;;-144.67;100.00
21877;BME280;11103;43.788;23.710;2023-05-03T03:03:26;-1383.03;;;-144.67;100.00
21877;BME280;11103;43.788;23.710;2023-05-03T03:05:51;-1136.34;;;-144.67;100.00
21877;BME280;11103;43.788;23.710;2023-05-03T03:08:17;-2616.09;;;-144.67;100.00
21877;BME280;11103;43.788;23.710;2023-05-03T03:10:42;-5080.81;;;-144.67;100.00
21877;BME280;11103;43.788;23.710;2023-05-03T03:13:08;-8036.03;;;-144.67;100.00
21877;BME280;11103;43.788;23.710;2023-05-03T03:15:33;-9758.66;;;-144.67;100.00
21877;BME280;11103;43.788;23.710;2023-05-03T03:17:58;-9266.56;;;-144.67;100.00
21877;BME280;11103;43.788;23.710;2023-05-03T03:20:25;-9266.56;;;-144.67;100.00
21877;BME280;11103;43.788;23.710;2023-05-03T03:22:50;-10988.56;;;-144.67;100.00
21877;BME280;11103;43.788;23.710;2023-05-03T03:25:16;-11480.41;;;-144.67;100.00
21877;BME280;11103;43.788;23.710;2023-05-03T03:27:41;-10988.56;;;-144.67;100.00
21877;BME280;11103;43.788;23.710;2023-05-03T03:30:07;-10742.63;;;-144.67;100.00
21877;BME280;11103;43.788;23.710;2023-05-03T03:32:33;-11480.41;;;-144.67;100.00
21877;BME280;11103;43.788;23.710;2023-05-03T03:34:59;-12955.44;;;-144.67;100.00
21877;BME280;11103;43.788;23.710;2023-05-03T03:37:24;-12955.44;;;-144.67;100.00
21877;BME280;11103;43.788;23.710;2023-05-03T03:39:50;-13201.22;;;-144.67;100.00
21877;BME280;11103;43.788;23.710;2023-05-03T03:42:15;-13446.97;;;-144.67;100.00
21877;BME280;11103;43.788;23.710;2023-05-03T03:44:41;-14184.13;;;-144.67;100.00
21877;BME280;11103;43.788;23.710;2023-05-03T03:47:06;-14921.13;;;-144.67;100.00
21877;BME280;11103;43.788;23.710;2023-05-03T03:49:32;-14922.56;;;-144.67;100.00
21877;BME280;11103;43.788;23.710;2023-05-03T03:51:57;-14922.56;;;-144.67;100.00
21877;BME280;11103;43.788;23.710;2023-05-03T03:54:22;-14922.56;;;-144.67;100.00
21877;BME280;11103;43.788;23.710;2023-05-03T03:56:48;-14922.56;;;-144.67;100.00
21877;BME280;11103;43.788;23.710;2023-05-03T03:59:15;-14922.56;;;-144.67;100.00
21877;BME280;11103;43.788;23.710;2023-05-03T04:01:40;-14922.56;;;-144.67;100.00
21877;BME280;11103;43.788;23.710;2023-05-03T04:04:06;-14922.56;;;-144.67;100.00
21877;BME280;11103;43.788;23.710;2023-05-03T04:06:31;-14922.56;;;-144.67;100.00
21877;BME280;11103;43.788;23.710;2023-05-03T04:08:57;-14922.56;;;-144.67;100.00
21877;BME280;11103;43.788;23.710;2023-05-03T04:11:22;-14922.56;;;-144.67;100.00
21877;BME280;11103;43.788;23.710;2023-05-03T04:13:48;-14922.56;;;-144.67;100.00
21877;BME280;11103;43.788;23.710;2023-05-03T04:16:13;-14922.56;;;-144.67;100.00
21877;BME280;11103;43.788;23.710;2023-05-03T04:18:39;-14922.56;;;-144.67;100.00
21877;BME280;11103;43.788;23.710;2023-05-03T04:21:05;-14922.56;;;-144.67;100.00
21877;BME280;11103;43.788;23.710;2023-05-03T04:23:31;-14922.56;;;-144.67;100.00
21877;BME280;11103;43.788;23.710;2023-05-03T04:25:56;-14922.56;;;-144.67;100.00
21877;BME280;11103;43.788;23.710;2023-05-03T04:28:22;-14922.56;;;-144.67;100.00
21877;BME280;11103;43.788;23.710;2023-05-03T04:30:47;-14922.56;;;-144.67;100.00
21877;BME280;11103;43.788;23.710;2023-05-03T04:33:13;-14922.56;;;-144.67;100.00
21877;BME280;11103;43.788;23.710;2023-05-03T04:35:39;-14922.56;;;-144.67;100.00
21877;BME280;11103;43.788;23.710;2023-05-03T04:38:05;-14922.56;;;-144.67;100.00
21877;BME280;11103;43.788;23.710;2023-05-03T04:40:31;-14922.56;;;-144.67;100.00
21877;BME280;11103;43.788;23.710;2023-05-03T04:42:56;-14922.56;;;-144.67;100.00
21877;BME280;11103;43.788;23.710;2023-05-03T04:45:22;-14922.56;;;-144.67;100.00
21877;BME280;11103;43.788;23.710;2023-05-03T04:47:48;-14922.56;;;-144.67;100.00
21877;BME280;11103;43.788;23.710;2023-05-03T04:50:13;-14922.56;;;-144.67;100.00
21877;BME280;11103;43.788;23.710;2023-05-03T04:52:39;-14922.56;;;-144.67;100.00
21877;BME280;11103;43.788;23.710;2023-05-03T04:55:05;-14922.56;;;-144.67;100.00
21877;BME280;11103;43.788;23.710;2023-05-03T04:57:30;-14922.56;;;-144.67;100.00
21877;BME280;11103;43.788;23.710;2023-05-03T04:59:59;-14922.56;;;-144.67;100.00
21877;BME280;11103;43.788;23.710;2023-05-03T05:02:24;-14922.56;;;-144.67;100.00
21877;BME280;11103;43.788;23.710;2023-05-03T05:04:51;-14922.56;;;-144.67;100.00
21877;BME280;11103;43.788;23.710;2023-05-03T05:07:16;-14922.56;;;-144.67;100.00
21877;BME280;11103;43.788;23.710;2023-05-03T05:09:42;-14922.56;;;-144.67;100.00
21877;BME280;11103;43.788;23.710;2023-05-03T05:12:07;-14922.56;;;-144.67;100.00
21877;BME280;11103;43.788;23.710;2023-05-03T05:14:33;-14922.56;;;-144.67;100.00
21877;BME280;11103;43.788;23.710;2023-05-03T05:16:58;-14922.56;;;-144.67;100.00
21877;BME280;11103;43.788;23.710;2023-05-03T05:19:24;-14922.56;;;-144.67;100.00
21877;BME280;11103;43.788;23.710;2023-05-03T05:21:50;-14675.47;;;-144.67;100.00
21877;BME280;11103;43.788;23.710;2023-05-03T05:24:16;-14184.13;;;-144.67;100.00
21877;BME280;11103;43.788;23.710;2023-05-03T05:26:42;-13692.72;;;-144.67;100.00
21877;BME280;11103;43.788;23.710;2023-05-03T05:29:07;-11972.16;;;-144.67;100.00
21877;BME280;11103;43.788;23.710;2023-05-03T05:31:33;-10250.69;;;-144.67;100.00
21877;BME280;11103;43.788;23.710;2023-05-03T05:33:59;-10004.69;;;-144.67;100.00
21877;BME280;11103;43.788;23.710;2023-05-03T05:36:25;-11234.50;;;-144.67;100.00
21877;BME280;11103;43.788;23.710;2023-05-03T05:38:50;-14184.13;;;-144.67;100.00
21877;BME280;11103;43.788;23.710;2023-05-03T05:41:16;-14921.13;;;-144.67;100.00
21877;BME280;11103;43.788;23.710;2023-05-03T05:43:41;-14921.13;;;-144.67;100.00
21877;BME280;11103;43.788;23.710;2023-05-03T05:46:07;-14921.13;;;-144.67;100.00
21877;BME280;11103;43.788;23.710;2023-05-03T05:48:32;-13692.72;;;-144.67;100.00
21877;BME280;11103;43.788;23.710;2023-05-03T05:50:58;-14675.47;;;-144.67;100.00
21877;BME280;11103;43.788;23.710;2023-05-03T05:53:23;-14922.56;;;-144.67;100.00
21877;BME280;11103;43.788;23.710;2023-05-03T05:55:49;-14922.56;;;-144.67;100.00
21877;BME280;11103;43.788;23.710;2023-05-03T05:58:14;-14922.56;;;-144.67;100.00
21877;BME280;11103;43.788;23.710;2023-05-03T06:00:40;-14922.56;;;-144.67;100.00
21877;BME280;11103;43.788;23.710;2023-05-03T06:03:06;-14922.56;;;-144.67;100.00
21877;BME280;11103;43.788;23.710;2023-05-03T06:05:31;-14922.56;;;-144.67;100.00
21877;BME280;11103;43.788;23.710;2023-05-03T06:07:57;-14922.56;;;-144.67;100.00
21877;BME280;11103;43.788;23.710;2023-05-03T06:10:22;-14922.56;;;-144.67;100.00
21877;BME280;11103;43.788;23.710;2023-05-03T06:12:48;-14922.56;;;-144.67;100.00
21877;BME280;11103;43.788;23.710;2023-05-03T06:15:13;-14922.56;;;-144.67;100.00
21877;BME280;11103;43.788;23.710;2023-05-03T06:17:39;-14922.56;;;-144.67;100.00
21877;BME280;11103;43.788;23.710;2023-05-03T06:20:05;-14922.56;;;-144.67;100.00
21877;BME280;11103;43.788;23.710;2023-05-03T06:22:30;-14184.13;;;-144.67;100.00
21877;BME280;11103;43.788;23.710;2023-05-03T06:24:56;-13446.97;;;-144.67;100.00
21877;BME280;11103;43.788;23.710;2023-05-03T06:27:22;-13201.22;;;-144.67;100.00
21877;BME280;11103;43.788;23.710;2023-05-03T06:29:48;-10742.63;;;-144.67;100.00
21877;BME280;11103;43.788;23.710;2023-05-03T06:32:14;-13446.97;;;-144.67;100.00
21877;BME280;11103;43.788;23.710;2023-05-03T06:34:40;-12955.44;;;-144.67;100.00
21877;BME280;11103;43.788;23.710;2023-05-03T06:37:05;-13692.72;;;-144.67;100.00
21877;BME280;11103;43.788;23.710;2023-05-03T06:39:31;-10250.69;;;-144.67;100.00
21877;BME280;11103;43.788;23.710;2023-05-03T06:41:56;-13446.97;;;-144.67;100.00
21877;BME280;11103;43.788;23.710;2023-05-03T06:44:21;-14429.81;;;-144.67;100.00
21877;BME280;11103;43.788;23.710;2023-05-03T06:46:47;-13938.44;;;-144.67;100.00
21877;BME280;11103;43.788;23.710;2023-05-03T06:49:13;-12955.44;;;-144.67;100.00
21877;BME280;11103;43.788;23.710;2023-05-03T06:51:38;-13446.97;;;-144.67;100.00
21877;BME280;11103;43.788;23.710;2023-05-03T06:54:04;-12218.00;;;-144.67;100.00
21877;BME280;11103;43.788;23.710;2023-05-03T06:56:34;-10742.63;;;-144.67;100.00
21877;BME280;11103;43.788;23.710;2023-05-03T06:59:01;-10742.63;;;-144.67;100.00
21877;BME280;11103;43.788;23.710;2023-05-03T07:01:26;-9266.56;;;-144.67;100.00
21877;BME280;11103;43.788;23.710;2023-05-03T07:03:52;-7297.47;;;-144.67;100.00
21877;BME280;11103;43.788;23.710;2023-05-03T07:06:17;-4588.00;;;-144.67;100.00
21877;BME280;11103;43.788;23.710;2023-05-03T07:08:43;-7297.47;;;-144.67;100.00
21877;BME280;11103;43.788;23.710;2023-05-03T07:11:09;-5573.53;;;-144.67;100.00
21877;BME280;11103;43.788;23.710;2023-05-03T07:13:34;-7297.47;;;-144.67;100.00
21877;BME280;11103;43.788;23.710;2023-05-03T07:16:00;-6805.00;;;-144.67;100.00
21877;BME280;11103;43.788;23.710;2023-05-03T07:18:25;-3109.16;;;-144.67;100.00
21877;BME280;11103;43.788;23.710;2023-05-03T07:20:51;-3848.69;;;-144.67;100.00
21877;BME280;11103;43.788;23.710;2023-05-03T07:23:17;-4588.00;;;-144.67;100.00
21877;BME280;11103;43.788;23.710;2023-05-03T07:25:42;-396.25;;;-144.67;100.00
21877;BME280;11103;43.788;23.710;2023-05-03T07:28:08;-889.66;;;-144.67;100.00
21877;BME280;11103;43.788;23.710;2023-05-03T07:30:33;-889.66;;;-144.67;100.00
21877;BME280;11103;43.788;23.710;2023-05-03T07:32:58;2812.84;;;-144.67;100.00
21877;BME280;11103;43.788;23.710;2023-05-03T07:35:24;6766.81;;;-144.67;100.00
21877;BME280;11103;43.788;23.710;2023-05-03T07:37:51;5777.88;;;-144.67;100.00
21877;BME280;11103;43.788;23.710;2023-05-03T07:40:17;5036.38;;;-144.67;100.00
21877;BME280;11103;43.788;23.710;2023-05-03T07:42:43;8250.78;;;-144.67;100.00
21877;BME280;11103;43.788;23.710;2023-05-03T07:45:09;3059.84;;;-144.67;100.00
21877;BME280;11103;43.788;23.710;2023-05-03T07:47:35;4295.03;;;-144.67;100.00
21877;BME280;11103;43.788;23.710;2023-05-03T07:50:03;5530.69;;;-144.67;100.00
21877;BME280;11103;43.788;23.710;2023-05-03T07:52:34;6025.09;;;-144.67;100.00
21877;BME280;11103;43.788;23.710;2023-05-03T07:55:00;4542.13;;;-144.67;100.00
21877;BME280;11103;43.788;23.710;2023-05-03T07:57:27;3553.84;;;-144.67;100.00
21877;BME280;11103;43.788;23.710;2023-05-03T07:59:53;2072.00;;;-144.67;100.00
21877;BME280;11103;43.788;23.710;2023-05-03T08:02:19;6519.56;;;-144.67;100.00
21877;BME280;11103;43.788;23.710;2023-05-03T08:04:45;7756.03;;;-144.67;100.00
21877;BME280;11103;43.788;23.710;2023-05-03T08:07:11;10230.41;;;-144.67;100.00
21877;BME280;11103;43.788;23.710;2023-05-03T08:09:36;5036.38;;;-144.67;100.00
21877;BME280;11103;43.788;23.710;2023-05-03T08:12:02;-396.25;;;-144.67;100.00
21877;BME280;11103;43.788;23.710;2023-05-03T08:14:28;3306.84;;;-144.67;100.00
21877;BME280;11103;43.788;23.710;2023-05-03T08:16:53;2072.00;;;-144.67;100.00
21877;BME280;11103;43.788;23.710;2023-05-03T08:19:19;8745.56;;;-144.67;100.00
21877;BME280;11103;43.788;23.710;2023-05-03T08:21:44;14441.13;;;-144.67;100.00
21877;BME280;11103;43.788;23.710;2023-05-03T08:24:11;8745.56;;;-144.67;100.00
21877;BME280;11103;43.788;23.710;2023-05-03T08:26:39;7756.03;;;-144.67;100.00
21877;BME280;11103;43.788;23.710;2023-05-03T08:29:05;6272.31;;;-144.67;100.00
21877;BME280;11103;43.788;23.710;2023-05-03T08:31:31;11468.31;;;-144.67;100.00
21877;BME280;11103;43.788;23.710;2023-05-03T08:33:56;10725.53;;;-144.67;100.00
21877;BME280;11103;43.788;23.710;2023-05-03T08:36:22;18409.06;;;-144.67;100.00
21877;BME280;11103;43.788;23.710;2023-05-03T08:38:48;11715.94;;;-144.67;100.00
21877;BME280;11103;43.788;23.710;2023-05-03T08:41:25;20146.50;;;-144.67;100.00
21877;BME280;11103;43.788;23.710;2023-05-03T08:43:53;21636.50;;;-144.67;100.00
21877;BME280;11103;43.788;23.710;2023-05-03T08:46:19;18160.91;;;-144.67;100.00
21877;BME280;11103;43.788;23.710;2023-05-03T08:48:49;29345.34;;;-144.67;100.00
21877;BME280;11103;43.788;23.710;2023-05-03T08:51:15;30092.31;;;-144.67;100.00
21877;BME280;11103;43.788;23.710;2023-05-03T08:53:41;44816.63;;;-144.67;100.00
21877;BME280;11103;43.788;23.710;2023-05-03T08:56:08;28847.47;;;-144.67;100.00
21877;BME280;11103;43.788;23.710;2023-05-03T08:58:35;37820.75;;;-144.67;100.00
21877;BME280;11103;43.788;23.710;2023-05-03T09:01:07;47068.38;;;-144.67;100.00
21877;BME280;11103;43.788;23.710;2023-05-03T09:03:34;50323.59;;;-144.67;100.00
21877;BME280;11103;43.788;23.710;2023-05-03T09:06:00;51576.41;;;-144.67;100.00
21877;BME280;11103;43.788;23.710;2023-05-03T09:08:26;57596.50;;;-144.67;100.00
21877;BME280;11103;43.788;23.710;2023-05-03T09:10:52;45066.75;;;-144.67;100.00
21877;BME280;11103;43.788;23.710;2023-05-03T09:13:18;47318.66;;;-144.67;100.00
21877;BME280;11103;43.788;23.710;2023-05-03T09:15:52;41566.72;;;-144.67;100.00
21877;BME280;11103;43.788;23.710;2023-05-03T09:18:18;45817.22;;;-144.67;100.00
21877;BME280;11103;43.788;23.710;2023-05-03T09:20:46;46317.63;;;-144.67;100.00
21877;BME280;11103;43.788;23.710;2023-05-03T09:25:52;43566.28;;;-144.67;100.00
21877;BME280;11103;43.788;23.710;2023-05-03T09:28:19;59103.19;;;-144.67;100.00
21877;BME280;11103;43.788;23.710;2023-05-03T09:30:46;32832.63;;;-144.67;100.00
21877;BME280;11103;43.788;23.710;2023-05-03T09:33:12;62872.84;;;-144.67;99.41
21877;BME280;11103;43.788;23.710;2023-05-03T09:36:12;74240.34;;;-144.67;96.67
21877;BME280;11103;43.788;23.710;2023-05-03T09:38:37;63124.28;;;-144.67;99.67
21877;BME280;11103;43.788;23.710;2023-05-03T09:41:03;60108.00;;;-144.67;100.00
21877;BME280;11103;43.788;23.710;2023-05-03T09:43:30;68088.50;;;-144.67;98.24
21877;BME280;11103;43.788;23.710;2023-05-03T09:46:10;73968.38;;;-144.67;97.12
21877;BME280;11103;43.788;23.710;2023-05-03T09:48:37;63124.28;;;-144.67;99.03
21877;BME280;11103;43.788;23.710;2023-05-03T09:51:03;82520.63;;;-144.67;92.88
21877;BME280;11103;43.788;23.710;2023-05-03T09:53:31;86278.59;;;-144.67;88.36
21877;BME280;11103;43.788;23.710;2023-05-03T09:55:58;86500.13;;;-144.67;84.08
21877;BME280;11103;43.788;23.710;2023-05-03T09:58:26;86270.66;;;-144.67;88.70
21877;BME280;11103;43.788;23.710;2023-05-03T10:00:55;82200.56;;;-144.67;93.73
21877;BME280;11103;43.788;23.710;2023-05-03T10:03:27;86421.00;;;-144.67;86.26
21877;BME280;11103;43.788;23.710;2023-05-03T10:05:56;86171.78;;;-144.67;88.86
21877;BME280;11103;43.788;23.710;2023-05-03T10:10:55;86385.41;;;-144.67;87.61
21877;BME280;11103;43.788;23.710;2023-05-03T10:13:21;85222.53;;;-144.67;91.30
21877;BME280;11103;43.788;23.710;2023-05-03T10:15:53;86221.22;;;-144.67;88.72
21877;BME280;11103;43.788;23.710;2023-05-03T10:18:22;85883.03;;;-144.67;89.97
21877;BME280;11103;43.788;23.710;2023-05-03T10:20:54;84793.50;;;-144.67;91.58
21877;BME280;11103;43.788;23.710;2023-05-03T10:23:22;85368.88;;;-144.67;90.09
21877;BME280;11103;43.788;23.710;2023-05-03T10:28:37;81538.81;;;-144.67;93.23
21877;BME280;11103;43.788;23.710;2023-05-03T10:31:02;86353.75;;;-144.67;84.13
21877;BME280;11103;43.788;23.710;2023-05-03T10:33:32;86120.34;;;-144.67;78.80
21877;BME280;11103;43.788;23.710;2023-05-03T10:36:04;86142.13;;;-144.67;78.58
21877;BME280;11103;43.788;23.710;2023-05-03T10:38:31;86290.44;;;-144.67;82.67
21877;BME280;11103;43.788;23.710;2023-05-03T10:40:57;86278.59;;;-144.67;86.61
21877;BME280;11103;43.788;23.710;2023-05-03T10:45:59;86088.72;;;-144.67;78.75
21877;BME280;11103;43.788;23.710;2023-05-03T10:48:25;85970.03;;;-144.67;76.98
21877;BME280;11103;43.788;23.710;2023-05-03T10:50:51;85689.22;;;-144.67;74.71
21877;BME280;11103;43.788;23.710;2023-05-03T10:53:36;85970.03;;;-144.67;77.44
21877;BME280;11103;43.788;23.710;2023-05-03T10:56:11;86128.25;;;-144.67;78.59
21877;BME280;11103;43.788;23.710;2023-05-03T10:58:47;86104.53;;;-144.67;77.24
21877;BME280;11103;43.788;23.710;2023-05-03T11:01:18;86132.22;;;-144.67;77.85
21877;BME280;11103;43.788;23.710;2023-05-03T11:06:46;86258.81;;;-144.67;79.74
21877;BME280;11103;43.788;23.710;2023-05-03T11:09:15;86064.97;;;-144.67;77.96
21877;BME280;11103;43.788;23.710;2023-05-03T11:11:41;86072.88;;;-144.67;77.10
21877;BME280;11103;43.788;23.710;2023-05-03T11:14:08;86120.34;;;-144.67;78.61
21877;BME280;11103;43.788;23.710;2023-05-03T11:16:37;86383.41;;;-144.67;82.86
21877;BME280;11103;43.788;23.710;2023-05-03T11:19:11;86436.81;;;-144.67;86.68
21877;BME280;11103;43.788;23.710;2023-05-03T11:21:37;86430.88;;;-144.67;85.88
21877;BME280;11103;43.788;23.710;2023-05-03T11:24:02;86472.44;;;-144.67;84.35
21877;BME280;11103;43.788;23.710;2023-05-03T11:26:34;86112.44;;;-144.67;88.42
21877;BME280;11103;43.788;23.710;2023-05-03T11:28:59;86047.19;;;-144.67;88.51
21877;BME280;11103;43.788;23.710;2023-05-03T11:31:25;85871.16;;;-144.67;88.31
21877;BME280;11103;43.788;23.710;2023-05-03T11:33:50;81985.25;;;-144.67;93.14
21877;BME280;11103;43.788;23.710;2023-05-03T11:36:16;65136.63;;;-144.67;98.22
21877;BME280;11103;43.788;23.710;2023-05-03T11:38:41;85479.59;;;-144.67;89.38
21877;BME280;11103;43.788;23.710;2023-05-03T11:41:16;80936.44;;;-144.67;93.40
21877;BME280;11103;43.788;23.710;2023-05-03T11:43:46;83929.63;;;-144.67;91.64
21877;BME280;11103;43.788;23.710;2023-05-03T11:46:24;80934.47;;;-144.67;93.87
21877;BME280;11103;43.788;23.710;2023-05-03T11:48:50;85918.63;;;-144.67;88.75
21877;BME280;11103;43.788;23.710;2023-05-03T11:51:21;84894.31;;;-144.67;90.95
21877;BME280;11103;43.788;23.710;2023-05-03T11:53:47;68916.91;;;-144.67;98.21
21877;BME280;11103;43.788;23.710;2023-05-03T11:56:13;66670.25;;;-144.67;98.19
21877;BME280;11103;43.788;23.710;2023-05-03T11:58:54;81685.00;;;-144.67;93.44
21877;BME280;11103;43.788;23.710;2023-05-03T12:01:28;84908.16;;;-144.67;90.89
21877;BME280;11103;43.788;23.710;2023-05-03T12:03:57;82787.38;;;-144.67;92.23
21877;BME280;11103;43.788;23.710;2023-05-03T12:06:23;86096.63;;;-144.67;87.66
21877;BME280;11103;43.788;23.710;2023-05-03T12:08:49;85052.50;;;-144.67;90.64
21877;BME280;11103;43.788;23.710;2023-05-03T12:11:15;85910.72;;;-144.67;88.56
21877;BME280;11103;43.788;23.710;2023-05-03T12:13:40;84127.28;;;-144.67;91.62
21877;BME280;11103;43.788;23.710;2023-05-03T12:16:07;83589.69;;;-144.67;92.21
21877;BME280;11103;43.788;23.710;2023-05-03T12:21:18;86059.03;;;-144.67;87.42
21877;BME280;11103;43.788;23.710;2023-05-03T12:23:45;86066.97;;;-144.67;86.92
21877;BME280;11103;43.788;23.710;2023-05-03T12:26:11;85954.22;;;-144.67;78.56
21877;BME280;11103;43.788;23.710;2023-05-03T12:28:37;85600.22;;;-144.67;73.42
21877;BME280;11103;43.788;23.710;2023-05-03T12:31:03;85558.69;;;-144.67;74.58
21877;BME280;11103;43.788;23.710;2023-05-03T12:33:28;85183.00;;;-144.67;69.59
21877;BME280;11103;43.788;23.710;2023-05-03T12:35:55;85119.72;;;-144.67;69.58
21877;BME280;11103;43.788;23.710;2023-05-03T12:38:20;85376.78;;;-144.67;73.95
21877;BME280;11103;43.788;23.710;2023-05-03T12:40:47;85252.19;;;-144.67;72.07